RELEVES METEO NEUVILLE
Donnes mto: Actuelle samedi, 07/12/2019 05:25
Date Horaire Temp. E. Hum. E. P.atmo. Pluie Vent Direction Direction P. de rose Temp au vent Rafales
07/12/2019 05:25 7,4 C 94 % 1012,9 hPa 0,0 mm 0,0 km/h (0 Bft) SO 234 6,5 C 7,4 C 0,0 km/h (0 Bft)
07/12/2019 05:20 7,3 C 94 % 1012,9 hPa 0,0 mm 0,0 km/h (0 Bft) SO 235 6,4 C 7,3 C 0,0 km/h (0 Bft)
07/12/2019 05:15 7,3 C 94 % 1012,8 hPa 0,0 mm 0,0 km/h (0 Bft) SO 234 6,4 C 7,3 C 0,0 km/h (0 Bft)
07/12/2019 05:10 7,3 C 94 % 1012,8 hPa 0,0 mm 0,0 km/h (0 Bft) SO 234 6,4 C 7,3 C 0,0 km/h (0 Bft)
07/12/2019 05:05 7,3 C 94 % 1012,8 hPa 0,0 mm 0,0 km/h (0 Bft) SO 234 6,4 C 7,3 C 0,0 km/h (0 Bft)
07/12/2019 05:00 7,3 C 94 % 1012,8 hPa 0,0 mm 0,0 km/h (0 Bft) SO 234 6,4 C 7,3 C 0,0 km/h (0 Bft)
07/12/2019 04:55 7,3 C 94 % 1012,7 hPa 0,0 mm 0,0 km/h (0 Bft) SO 234 6,4 C 7,3 C 0,0 km/h (0 Bft)
07/12/2019 04:50 7,3 C 94 % 1012,7 hPa 0,0 mm 0,0 km/h (0 Bft) SO 234 6,4 C 7,3 C 0,0 km/h (0 Bft)
07/12/2019 04:45 7,4 C 94 % 1012,7 hPa 0,0 mm 0,0 km/h (0 Bft) SO 234 6,5 C 7,4 C 0,0 km/h (0 Bft)
07/12/2019 04:40 7,4 C 94 % 1012,5 hPa 0,0 mm 0,0 km/h (0 Bft) SO 234 6,5 C 7,4 C 0,0 km/h (0 Bft)
07/12/2019 04:35 7,5 C 94 % 1012,5 hPa 0,0 mm 0,2 km/h (0 Bft) SO 234 6,6 C 7,5 C 3,2 km/h (1 Bft)
07/12/2019 04:30 7,6 C 93 % 1012,3 hPa 0,0 mm 0,2 km/h (0 Bft) SO 234 6,5 C 7,6 C 3,2 km/h (1 Bft)
07/12/2019 04:25 7,6 C 93 % 1012,3 hPa 0,0 mm 0,0 km/h (0 Bft) SO 232 6,5 C 7,6 C 0,0 km/h (0 Bft)
07/12/2019 04:20 7,7 C 93 % 1012,3 hPa 0,0 mm 0,0 km/h (0 Bft) SO 232 6,6 C 7,7 C 0,0 km/h (0 Bft)
07/12/2019 04:15 7,7 C 93 % 1012,4 hPa 0,0 mm 0,0 km/h (0 Bft) SO 232 6,6 C 7,7 C 1,6 km/h (1 Bft)
07/12/2019 04:10 7,7 C 93 % 1012,1 hPa 0,0 mm 0,0 km/h (0 Bft) SO 232 6,6 C 7,7 C 1,6 km/h (1 Bft)
07/12/2019 04:05 7,7 C 93 % 1012,2 hPa 0,0 mm 0,5 km/h (0 Bft) SO 232 6,6 C 7,7 C 6,4 km/h (2 Bft)
07/12/2019 04:00 7,7 C 93 % 1012,2 hPa 0,0 mm 0,0 km/h (0 Bft) O-SO 245 6,6 C 7,7 C 1,6 km/h (1 Bft)
07/12/2019 03:55 7,8 C 93 % 1012,1 hPa 0,0 mm 0,6 km/h (0 Bft) O-SO 247 6,7 C 7,8 C 8,0 km/h (2 Bft)
07/12/2019 03:50 7,9 C 93 % 1012,0 hPa 0,0 mm 0,3 km/h (0 Bft) O-SO 250 6,8 C 7,9 C 3,2 km/h (1 Bft)
07/12/2019 03:45 8,0 C 93 % 1012,0 hPa 0,0 mm 0,0 km/h (0 Bft) O-SO 251 6,9 C 8,0 C 1,6 km/h (1 Bft)
_ Min-Heure 04:50 02:50 00:00 - 01:00 - - 04:50 04:50 01:00
Minimum _ 7,3 C 92 % 1009,9 hPa - 0,0 km/h (0 Bft) - - 6,4 C 7,3 C 0,0 km/h (0 Bft)
_ Max-Heure 00:00 00:00 05:20 00:20 00:00 - - 00:00 00:00 00:00
Maximum _ 8,7 C 96 % 1012,9 hPa 0,2 mm 1,9 km/h
NO (1 Bft)
- - 8,1 C 8,7 C 12,9 km/h
O (3 Bft)
Moyenne _ 8,0 C 94 % 1011,4 hPa #0,2 mm 0,3 km/h (0 Bft) O-SO - 7,0 C 8,0 C 3,9 km/h (1 Bft)
NEUVILLE ST REMY